createdAt,value
2019-02-14T00:02:16.787Z,4.87
2019-02-14T00:04:47.408Z,5.73
2019-02-14T00:07:17.708Z,4.97
2019-02-14T00:09:47.940Z,5.30
2019-02-14T00:12:18.167Z,5.47
2019-02-14T00:14:48.818Z,5.27
2019-02-14T00:17:20.484Z,5.03
2019-02-14T00:19:51.951Z,5.03
2019-02-14T00:22:22.553Z,5.83
2019-02-14T00:24:53.734Z,4.93
2019-02-14T00:27:24.441Z,4.43
2019-02-14T00:29:55.478Z,7.33
2019-02-14T00:32:25.691Z,6.30
2019-02-14T00:34:56.434Z,7.23
2019-02-14T00:37:28.103Z,8.37
2019-02-14T00:39:58.996Z,7.40
2019-02-14T00:42:29.972Z,8.33
2019-02-14T00:45:00.575Z,10.30
2019-02-14T00:47:31.441Z,9.53
2019-02-14T00:50:02.488Z,10.07
2019-02-14T00:52:33.694Z,9.03
2019-02-14T00:55:03.984Z,9.77
2019-02-14T00:57:34.541Z,9.47
2019-02-14T01:00:06.047Z,9.63
2019-02-14T01:02:36.430Z,8.47
2019-02-14T01:05:06.723Z,9.10
2019-02-14T01:07:37.041Z,8.13
2019-02-14T01:10:07.290Z,10.00
2019-02-14T01:12:37.826Z,10.57
2019-02-14T01:15:09.179Z,9.10
2019-02-14T01:17:40.051Z,9.60
2019-02-14T01:20:10.302Z,9.57
2019-02-14T01:22:41.963Z,10.93
2019-02-14T01:25:12.528Z,10.33
2019-02-14T01:27:42.826Z,9.33
2019-02-14T01:30:13.518Z,9.33
2019-02-14T01:32:44.163Z,9.65
2019-02-14T01:35:14.414Z,8.90
2019-02-14T01:37:46.129Z,11.03
2019-02-14T01:40:17.069Z,8.17
2019-02-14T01:42:48.008Z,8.60
2019-02-14T01:45:18.269Z,8.23
2019-02-14T01:47:48.548Z,9.47
2019-02-14T01:50:18.810Z,9.73
2019-02-14T01:52:49.092Z,10.23
2019-02-14T01:55:19.714Z,11.23
2019-02-14T01:57:51.722Z,10.20
2019-02-14T02:00:22.536Z,8.33
2019-02-14T02:02:53.481Z,10.27
2019-02-14T02:05:25.030Z,10.03
2019-02-14T02:07:55.653Z,9.00
2019-02-14T02:10:30.801Z,9.73
2019-02-14T02:13:01.115Z,10.20
2019-02-14T02:15:31.407Z,7.27
2019-02-14T02:18:02.372Z,9.83
2019-02-14T02:20:33.558Z,7.53
2019-02-14T02:23:04.266Z,9.28
2019-02-14T02:25:34.515Z,8.60
2019-02-14T02:28:05.427Z,9.33
2019-02-14T02:30:35.754Z,8.27
2019-02-14T02:33:06.063Z,9.53
2019-02-14T02:35:36.245Z,7.30
2019-02-14T02:38:06.874Z,11.13
2019-02-14T02:40:37.358Z,9.80
2019-02-14T02:43:07.664Z,10.33
2019-02-14T02:45:38.317Z,10.03
2019-02-14T02:48:08.946Z,7.60
2019-02-14T02:50:39.808Z,11.03
2019-02-14T02:53:10.415Z,8.50
2019-02-14T02:55:41.045Z,9.83
2019-02-14T02:58:12.702Z,8.40
2019-02-14T03:00:43.194Z,9.70
2019-02-14T03:03:13.412Z,9.50
2019-02-14T03:05:43.734Z,9.57
2019-02-14T03:08:13.935Z,10.20
2019-02-14T03:10:46.172Z,10.67
2019-02-14T03:13:16.702Z,10.07
2019-02-14T03:15:46.997Z,8.68
2019-02-14T03:19:37.019Z,10.30
2019-02-14T03:22:07.956Z,11.20
2019-02-14T03:24:38.901Z,12.33
2019-02-14T03:27:09.158Z,8.87
2019-02-14T03:29:39.751Z,8.83
2019-02-14T03:32:10.003Z,9.30
2019-02-14T03:34:40.277Z,9.67
2019-02-14T03:37:10.550Z,9.57
2019-02-14T03:39:41.221Z,10.93
2019-02-14T03:42:11.891Z,10.40
2019-02-14T03:44:42.522Z,9.23
2019-02-14T03:47:12.775Z,9.87
2019-02-14T03:49:43.801Z,9.03
2019-02-14T03:52:14.041Z,9.90
2019-02-14T03:54:44.738Z,8.97
2019-02-14T03:57:15.346Z,9.35
2019-02-14T03:59:46.422Z,10.08
2019-02-14T04:02:16.671Z,9.50
2019-02-14T04:04:47.387Z,9.28
2019-02-14T04:07:17.647Z,10.90
2019-02-14T04:09:47.918Z,12.57
2019-02-14T04:12:18.545Z,9.47
2019-02-14T04:14:49.183Z,10.13
2019-02-14T04:17:19.712Z,11.50
2019-02-14T04:19:50.329Z,9.57
2019-02-14T04:22:20.842Z,9.83
2019-02-14T04:24:51.470Z,12.13
2019-02-14T04:27:21.685Z,9.50
2019-02-14T04:29:52.300Z,9.97
2019-02-14T04:32:23.265Z,9.57
2019-02-14T04:34:53.821Z,11.97
2019-02-14T04:37:24.110Z,10.33
2019-02-14T04:39:55.297Z,10.80
2019-02-14T04:42:25.578Z,11.20
2019-02-14T04:44:55.823Z,11.80
2019-02-14T04:47:26.472Z,11.10
2019-02-14T04:49:57.751Z,10.80
2019-02-14T04:52:28.007Z,10.33
2019-02-14T04:54:58.489Z,10.77
2019-02-14T04:57:31.070Z,12.73
2019-02-14T05:00:01.349Z,10.40
2019-02-14T05:02:32.009Z,11.33
2019-02-14T05:05:02.298Z,10.67
2019-02-14T05:07:32.920Z,10.93
2019-02-14T05:10:03.467Z,11.90
2019-02-14T05:12:34.083Z,13.00
2019-02-14T05:15:04.957Z,14.07
2019-02-14T05:17:36.004Z,14.27
2019-02-14T05:20:07.544Z,15.27
2019-02-14T05:22:38.107Z,17.03
2019-02-14T05:25:08.880Z,17.60
2019-02-14T05:27:39.370Z,17.67
2019-02-14T05:30:11.441Z,16.90
2019-02-14T05:32:41.736Z,16.40
2019-02-14T05:35:12.379Z,16.47
2019-02-14T05:37:42.994Z,16.23
2019-02-14T05:40:13.279Z,16.70
2019-02-14T05:42:44.370Z,16.83
2019-02-14T05:45:15.003Z,15.97
2019-02-14T05:47:45.577Z,16.00
2019-02-14T05:50:16.227Z,15.17
2019-02-14T05:52:48.227Z,15.60
2019-02-14T05:55:18.825Z,15.37
2019-02-14T05:57:49.491Z,14.90
2019-02-14T06:00:20.671Z,15.00
2019-02-14T06:02:50.987Z,15.50
2019-02-14T06:05:21.302Z,15.37
2019-02-14T06:07:51.974Z,16.57
2019-02-14T06:10:22.625Z,15.40
2019-02-14T06:12:52.871Z,16.57
2019-02-14T06:15:23.508Z,19.27
2019-02-14T06:17:54.192Z,16.60
2019-02-14T06:20:24.742Z,17.23
2019-02-14T06:22:55.572Z,16.13
2019-02-14T06:25:26.117Z,15.47
2019-02-14T06:27:56.373Z,18.47
2019-02-14T06:30:27.296Z,16.63
2019-02-14T06:32:57.631Z,16.97
2019-02-14T06:35:27.903Z,17.07
2019-02-14T06:37:58.874Z,17.80
2019-02-14T06:40:29.520Z,17.80
2019-02-14T06:43:00.152Z,20.10
2019-02-14T06:45:30.764Z,19.93
2019-02-14T06:48:01.325Z,17.67
2019-02-14T06:50:34.790Z,17.47
2019-02-14T06:53:04.315Z,19.70
2019-02-14T06:55:34.851Z,18.60
2019-02-14T06:58:05.178Z,19.73
2019-02-14T07:00:35.800Z,17.97
2019-02-14T07:03:06.966Z,18.00
2019-02-14T07:05:37.251Z,19.97
2019-02-14T07:08:08.450Z,18.13
2019-02-14T07:10:39.351Z,18.20
2019-02-14T07:13:09.986Z,16.53
2019-02-14T07:15:40.636Z,16.43
2019-02-14T07:18:10.985Z,17.30
2019-02-14T07:20:41.870Z,17.97
2019-02-14T07:23:12.511Z,18.35
2019-02-14T07:25:43.151Z,18.37
2019-02-14T07:28:13.779Z,18.23
2019-02-14T07:30:44.452Z,18.73
2019-02-14T07:33:15.036Z,19.70
2019-02-14T07:35:45.774Z,17.63
2019-02-14T07:38:16.404Z,17.40
2019-02-14T07:40:46.728Z,25.13
2019-02-14T07:43:17.365Z,22.47
2019-02-14T07:45:47.994Z,21.90
2019-02-14T07:48:19.237Z,21.67
2019-02-14T07:50:49.876Z,18.00
2019-02-14T07:53:20.651Z,18.80
2019-02-14T07:55:50.914Z,16.17
2019-02-14T07:58:21.569Z,18.97
2019-02-14T08:00:52.854Z,18.23
2019-02-14T08:03:23.741Z,16.10
2019-02-14T08:05:54.043Z,16.33
2019-02-14T08:08:24.355Z,18.00
2019-02-14T08:10:55.588Z,18.87
2019-02-14T08:13:26.619Z,15.27
2019-02-14T08:15:57.321Z,17.03
2019-02-14T08:18:27.949Z,16.53
2019-02-14T08:20:58.585Z,16.67
2019-02-14T08:23:29.420Z,16.73
2019-02-14T08:26:00.997Z,22.27
2019-02-14T08:28:31.607Z,19.27
2019-02-14T08:31:02.237Z,18.33
2019-02-14T08:33:32.938Z,21.17
2019-02-14T08:36:03.470Z,15.67
2019-02-14T08:38:34.268Z,17.77
2019-02-14T08:41:04.977Z,17.60
2019-02-14T08:43:35.527Z,17.97
2019-02-14T08:46:06.147Z,16.97
2019-02-14T08:48:36.766Z,15.27
2019-02-14T08:51:07.324Z,16.50
2019-02-14T08:53:37.920Z,15.20
2019-02-14T08:56:08.863Z,14.33
2019-02-14T08:58:39.259Z,15.50
2019-02-14T09:01:10.465Z,15.57
2019-02-14T09:03:41.373Z,16.03
2019-02-14T09:06:11.968Z,17.03
2019-02-14T09:08:42.296Z,14.80
2019-02-14T09:11:12.934Z,16.27
2019-02-14T09:13:44.107Z,15.63
2019-02-14T09:16:14.704Z,14.93
2019-02-14T09:18:45.898Z,13.22
2019-02-14T09:21:16.462Z,14.80
2019-02-14T09:23:47.245Z,17.00
2019-02-14T09:26:17.642Z,15.57
2019-02-14T09:28:47.968Z,16.43
2019-02-14T09:31:19.504Z,16.37
2019-02-14T09:33:50.174Z,14.50
2019-02-14T09:36:20.501Z,16.03
2019-02-14T09:38:51.177Z,14.63
2019-02-14T09:41:21.442Z,19.37
2019-02-14T09:43:52.889Z,15.13
2019-02-14T09:46:23.478Z,14.20
2019-02-14T09:48:54.387Z,16.17
2019-02-14T09:51:25.012Z,15.83
2019-02-14T09:53:55.680Z,14.00
2019-02-14T09:56:25.965Z,13.07
2019-02-14T09:58:56.628Z,13.73
2019-02-14T10:01:27.555Z,14.73
2019-02-14T10:03:58.201Z,14.60
2019-02-14T10:06:36.444Z,15.77
2019-02-14T10:09:00.961Z,13.70
2019-02-14T10:11:32.545Z,15.67
2019-02-14T10:14:03.715Z,16.33
2019-02-14T10:16:34.717Z,16.63
2019-02-14T10:19:05.352Z,12.10
2019-02-14T10:21:36.240Z,12.55
2019-02-14T10:24:06.816Z,10.50
2019-02-14T10:26:37.445Z,10.50
2019-02-14T10:29:08.069Z,11.50
2019-02-14T10:31:38.960Z,11.43
2019-02-14T10:34:09.541Z,10.28
2019-02-14T10:36:40.081Z,9.90
2019-02-14T10:39:11.327Z,9.25
2019-02-14T10:41:41.617Z,10.80
2019-02-14T10:44:12.589Z,13.28
2019-02-14T10:46:43.226Z,13.35
2019-02-14T10:49:13.856Z,11.68
2019-02-14T10:51:44.630Z,8.98
2019-02-14T10:54:15.161Z,11.60
2019-02-14T10:56:46.161Z,9.23
2019-02-14T10:59:16.443Z,12.07
2019-02-14T11:01:47.426Z,12.65
2019-02-14T11:04:18.054Z,10.10
2019-02-14T11:06:48.553Z,11.10
2019-02-14T11:09:19.440Z,13.68
2019-02-14T11:11:50.023Z,12.20
2019-02-14T11:14:29.006Z,12.33
2019-02-14T11:16:53.260Z,11.08
2019-02-14T11:19:23.535Z,9.80
2019-02-14T11:21:54.397Z,9.85
2019-02-14T11:24:25.541Z,13.24
2019-02-14T11:26:56.404Z,10.93
2019-02-14T11:29:27.756Z,14.23
2019-02-14T11:31:58.273Z,9.20
2019-02-14T11:34:28.491Z,8.93
2019-02-14T11:36:59.852Z,10.20
2019-02-14T11:39:30.794Z,10.88
2019-02-14T11:42:02.245Z,9.65
2019-02-14T11:44:39.551Z,10.40
2019-02-14T11:47:05.147Z,8.73
2019-02-14T11:49:35.781Z,11.20
2019-02-14T11:52:06.407Z,10.58
2019-02-14T11:54:37.297Z,11.55
2019-02-14T11:57:07.545Z,10.85
2019-02-14T11:59:38.220Z,11.28
2019-02-14T12:02:08.735Z,9.33
2019-02-14T12:04:39.315Z,10.78
2019-02-14T12:07:10.169Z,8.53
2019-02-14T12:09:40.377Z,9.58
2019-02-14T12:12:10.948Z,9.20
2019-02-14T12:14:41.603Z,11.25
2019-02-14T12:17:12.216Z,8.90
2019-02-14T12:19:42.492Z,9.90
2019-02-14T12:22:13.075Z,10.20
2019-02-14T12:24:43.306Z,11.70
2019-02-14T12:27:13.822Z,9.48
2019-02-14T12:29:44.594Z,11.63
2019-02-14T12:32:15.166Z,11.77
2019-02-14T12:34:45.869Z,8.55
2019-02-14T12:37:16.429Z,9.58
2019-02-14T12:39:46.973Z,10.78
2019-02-14T12:42:17.246Z,8.28
2019-02-14T12:44:48.060Z,7.80
2019-02-14T12:47:18.287Z,6.33
2019-02-14T12:49:48.569Z,8.77
2019-02-14T12:52:18.753Z,8.35
2019-02-14T12:54:49.339Z,8.63
2019-02-14T12:57:19.583Z,8.60
2019-02-14T12:59:50.851Z,8.78
2019-02-14T13:02:21.057Z,8.45
2019-02-14T13:07:12.157Z,10.78
2019-02-14T13:09:42.464Z,8.58
2019-02-14T13:12:13.933Z,8.53
2019-02-14T13:14:44.349Z,9.10
2019-02-14T13:17:14.608Z,8.85
2019-02-14T13:19:44.901Z,8.48
2019-02-14T13:22:15.633Z,7.55
2019-02-14T13:24:46.189Z,8.53
2019-02-14T13:27:16.792Z,6.42
2019-02-14T13:29:47.420Z,8.15
2019-02-14T13:32:17.964Z,6.72
2019-02-14T13:34:48.278Z,7.83
2019-02-14T13:37:18.617Z,6.22
2019-02-14T13:39:49.542Z,6.42
2019-02-14T13:42:20.925Z,7.57
2019-02-14T13:44:51.527Z,5.17
2019-02-14T13:47:22.069Z,7.37
2019-02-14T13:49:52.384Z,8.35
2019-02-14T13:52:22.641Z,5.80
2019-02-14T13:54:52.925Z,5.75
2019-02-14T13:57:23.270Z,5.47
2019-02-14T13:59:53.787Z,5.23
2019-02-14T14:02:24.125Z,6.45
2019-02-14T14:04:54.404Z,6.72
2019-02-14T14:07:24.981Z,9.48
2019-02-14T14:09:55.222Z,5.87
2019-02-14T14:12:25.724Z,6.87
2019-02-14T14:14:56.467Z,6.40
2019-02-14T14:17:27.086Z,5.72
2019-02-14T14:19:57.813Z,4.67
2019-02-14T14:22:28.355Z,7.47
2019-02-14T14:24:58.878Z,7.53
2019-02-14T14:27:29.284Z,5.05
2019-02-14T14:30:00.929Z,6.10
2019-02-14T14:32:31.492Z,5.97
2019-02-14T14:35:02.215Z,8.43
2019-02-14T14:37:33.373Z,7.50
2019-02-14T14:40:04.636Z,6.50
2019-02-14T14:42:54.921Z,6.56
2019-02-14T14:45:46.932Z,6.28
2019-02-14T14:48:19.510Z,9.70
2019-02-14T14:50:50.053Z,7.20
2019-02-14T14:53:21.296Z,9.75
2019-02-14T14:55:51.931Z,7.50
2019-02-14T14:58:23.509Z,6.33
2019-02-14T15:00:54.143Z,10.55
2019-02-14T15:03:24.403Z,11.60
2019-02-14T15:05:54.989Z,7.67
2019-02-14T15:08:25.586Z,8.88
2019-02-14T15:10:55.878Z,9.13
2019-02-14T15:13:26.474Z,7.37
2019-02-14T15:15:57.195Z,8.85
2019-02-14T15:18:27.785Z,7.83
2019-02-14T15:20:59.346Z,5.65
2019-02-14T15:23:30.584Z,5.35
2019-02-14T15:26:01.150Z,9.75
2019-02-14T15:28:31.344Z,7.58
2019-02-14T15:31:01.665Z,7.77
2019-02-14T15:33:32.177Z,6.47
2019-02-14T15:36:02.828Z,6.42
2019-02-14T15:38:34.551Z,5.20
2019-02-14T15:41:05.293Z,9.18
2019-02-14T15:43:36.296Z,5.28
2019-02-14T15:46:06.548Z,9.13
2019-02-14T15:48:36.763Z,9.88
2019-02-14T15:51:07.371Z,10.50
2019-02-14T15:53:38.000Z,9.80
2019-02-14T15:56:08.255Z,9.70
2019-02-14T15:58:38.837Z,7.17
2019-02-14T16:01:09.123Z,8.10
2019-02-14T16:03:42.686Z,9.05
2019-02-14T16:06:12.990Z,9.23
2019-02-14T16:08:44.693Z,8.40
2019-02-14T16:11:16.552Z,9.35
2019-02-14T16:13:47.139Z,9.43
2019-02-14T16:16:17.412Z,8.43
2019-02-14T16:18:49.204Z,8.57
2019-02-14T16:21:20.237Z,8.37
2019-02-14T16:23:51.495Z,8.80
2019-02-14T16:26:22.695Z,7.90
2019-02-14T16:28:53.068Z,8.60
2019-02-14T16:31:24.053Z,8.30
2019-02-14T16:33:54.866Z,10.37
2019-02-14T16:36:25.504Z,8.30
2019-02-14T16:38:58.733Z,8.20
2019-02-14T16:41:29.223Z,9.07
2019-02-14T16:43:59.537Z,10.17
2019-02-14T16:46:30.148Z,8.87
2019-02-14T16:49:00.718Z,7.47
2019-02-14T16:51:31.240Z,9.37
2019-02-14T16:54:01.884Z,9.27
2019-02-14T16:56:33.426Z,9.30
2019-02-14T16:59:04.056Z,8.17
2019-02-14T17:01:34.491Z,9.13
2019-02-14T17:04:06.148Z,9.60
2019-02-14T17:06:36.769Z,9.20
2019-02-14T17:09:07.862Z,11.30
2019-02-14T17:11:38.186Z,10.63
2019-02-14T17:14:08.976Z,11.90
2019-02-14T17:16:39.920Z,12.20
2019-02-14T17:19:10.538Z,11.70
2019-02-14T17:21:41.093Z,10.07
2019-02-14T17:24:11.467Z,11.83
2019-02-14T17:26:41.931Z,10.80
2019-02-14T17:29:12.413Z,11.17
2019-02-14T17:31:42.965Z,10.33
2019-02-14T17:34:13.740Z,10.57
2019-02-14T17:36:44.632Z,12.90
2019-02-14T17:39:14.961Z,11.43
2019-02-14T17:41:46.458Z,11.47
2019-02-14T17:44:16.772Z,11.73
2019-02-14T17:46:47.036Z,10.73
2019-02-14T17:49:17.620Z,14.10
2019-02-14T17:51:48.251Z,13.13
2019-02-14T17:54:19.292Z,13.73
2019-02-14T17:56:49.573Z,11.20
2019-02-14T17:59:20.247Z,12.50
2019-02-14T18:01:50.892Z,11.27
2019-02-14T18:04:21.769Z,11.87
2019-02-14T18:06:52.543Z,12.50
2019-02-14T18:09:22.794Z,14.50
2019-02-14T18:11:53.172Z,13.53
2019-02-14T18:14:24.253Z,11.22
2019-02-14T18:16:54.927Z,14.20
2019-02-14T18:19:25.534Z,13.27
2019-02-14T18:21:55.885Z,11.77
2019-02-14T18:24:26.957Z,12.53
2019-02-14T18:26:57.259Z,15.20
2019-02-14T18:29:27.986Z,13.33
2019-02-14T18:31:58.188Z,16.40
2019-02-14T18:34:28.593Z,14.50
2019-02-14T18:36:59.329Z,14.13
2019-02-14T18:39:29.959Z,13.07
2019-02-14T18:42:00.307Z,13.63
2019-02-14T18:44:31.384Z,15.50
2019-02-14T18:47:01.952Z,13.80
2019-02-14T18:49:32.615Z,11.80
2019-02-14T18:52:03.635Z,14.53
2019-02-14T18:54:34.558Z,12.23
2019-02-14T18:57:05.809Z,13.03
2019-02-14T18:59:36.053Z,13.47
2019-02-14T19:02:06.662Z,13.63
2019-02-14T19:04:42.004Z,14.63
2019-02-14T19:07:18.088Z,15.57
2019-02-14T19:09:49.307Z,13.07
2019-02-14T19:12:19.585Z,12.27
2019-02-14T19:14:49.848Z,15.57
2019-02-14T19:17:20.812Z,14.13
2019-02-14T19:19:51.729Z,15.03
2019-02-14T19:22:21.977Z,13.40
2019-02-14T19:24:52.250Z,15.67
2019-02-14T19:27:22.617Z,12.57
2019-02-14T19:29:53.358Z,13.07
2019-02-14T19:32:24.020Z,14.67
2019-02-14T19:34:54.812Z,12.83
2019-02-14T19:37:26.747Z,13.22
2019-02-14T19:39:58.305Z,11.17
2019-02-14T19:42:28.885Z,10.77
2019-02-14T19:44:59.114Z,11.30
2019-02-14T19:47:29.408Z,13.40
2019-02-14T19:49:59.694Z,12.90
2019-02-14T19:52:30.262Z,14.93
2019-02-14T19:55:01.559Z,12.40
2019-02-14T19:57:32.278Z,11.55
2019-02-14T20:00:03.203Z,10.83
2019-02-14T20:02:33.926Z,11.87
2019-02-14T20:05:04.564Z,13.93
2019-02-14T20:07:36.288Z,13.43
2019-02-14T20:10:09.127Z,10.77
2019-02-14T20:12:40.027Z,13.00
2019-02-14T20:15:12.964Z,13.03
2019-02-14T20:17:43.987Z,12.70
2019-02-14T20:20:14.585Z,11.40
2019-02-14T20:22:45.233Z,12.80
2019-02-14T20:25:17.076Z,12.60
2019-02-14T20:27:49.968Z,13.97
2019-02-14T20:30:19.742Z,12.33
2019-02-14T20:32:50.364Z,13.20
2019-02-14T20:35:20.572Z,12.43
2019-02-14T20:37:52.026Z,40.77
2019-02-14T20:40:22.244Z,26.53
2019-02-14T20:42:52.539Z,16.23
2019-02-14T20:45:23.169Z,11.87
2019-02-14T20:47:57.134Z,15.10
2019-02-14T20:50:26.818Z,13.83
2019-02-14T20:52:57.496Z,19.97
2019-02-14T20:55:28.149Z,14.07
2019-02-14T20:57:59.090Z,11.63
2019-02-14T21:00:30.642Z,13.70
2019-02-14T21:03:01.281Z,12.37
2019-02-14T21:05:31.903Z,11.47
2019-02-14T21:08:03.646Z,11.30
2019-02-14T21:10:35.506Z,10.97
2019-02-14T21:13:06.188Z,13.37
2019-02-14T21:15:36.464Z,15.37
2019-02-14T21:18:07.342Z,12.70
2019-02-14T21:20:37.605Z,11.43
2019-02-14T21:23:07.908Z,13.50
2019-02-14T21:25:38.578Z,13.03
2019-02-14T21:28:08.860Z,11.13
2019-02-14T21:30:39.225Z,10.70
2019-02-14T21:33:10.168Z,12.10
2019-02-14T21:35:40.948Z,15.37
2019-02-14T21:38:11.942Z,14.63
2019-02-14T21:40:42.905Z,14.60
2019-02-14T21:43:13.586Z,13.97
2019-02-14T21:45:44.698Z,16.07
2019-02-14T21:48:15.008Z,16.07
2019-02-14T21:50:45.711Z,13.97
2019-02-14T21:53:16.216Z,16.70
2019-02-14T21:55:46.782Z,20.30
2019-02-14T21:58:17.118Z,17.67
2019-02-14T22:00:47.863Z,16.47
2019-02-14T22:03:18.215Z,15.23
2019-02-14T22:05:48.448Z,15.27
2019-02-14T22:08:19.060Z,17.07
2019-02-14T22:10:49.353Z,15.37
2019-02-14T22:13:20.158Z,16.70
2019-02-14T22:15:50.705Z,16.73
2019-02-14T22:18:21.373Z,16.43
2019-02-14T22:20:52.004Z,16.17
2019-02-14T22:23:22.562Z,16.53
2019-02-14T22:25:53.529Z,16.57
2019-02-14T22:28:24.190Z,17.67
2019-02-14T22:30:55.235Z,19.93
2019-02-14T22:33:26.174Z,20.37
2019-02-14T22:35:56.441Z,17.50
2019-02-14T22:38:26.709Z,17.63
2019-02-14T22:40:57.469Z,20.17
2019-02-14T22:43:28.025Z,16.67
2019-02-14T22:45:58.615Z,16.87
2019-02-14T22:48:29.222Z,16.67
2019-02-14T22:50:59.781Z,14.50
2019-02-14T22:53:30.419Z,14.85
2019-02-14T22:56:00.733Z,13.03
2019-02-14T22:58:31.367Z,15.20
2019-02-14T23:01:02.395Z,15.60
2019-02-14T23:03:34.472Z,20.63
2019-02-14T23:06:05.106Z,20.87
2019-02-14T23:08:36.256Z,21.53
2019-02-14T23:11:06.644Z,20.57
2019-02-14T23:13:37.210Z,19.93
2019-02-14T23:16:07.730Z,19.67
2019-02-14T23:18:38.777Z,16.27
2019-02-14T23:21:09.141Z,17.27
2019-02-14T23:24:05.234Z,17.60
2019-02-14T23:26:35.814Z,21.53
2019-02-14T23:29:06.068Z,17.03
2019-02-14T23:31:36.718Z,19.90
2019-02-14T23:34:07.554Z,14.77
2019-02-14T23:36:38.184Z,14.87
2019-02-14T23:39:08.555Z,18.27
2019-02-14T23:41:38.901Z,17.23
2019-02-14T23:44:09.202Z,18.67
2019-02-14T23:46:39.802Z,18.23
2019-02-14T23:49:10.470Z,17.75
2019-02-14T23:51:41.056Z,17.30
2019-02-14T23:54:12.505Z,20.80
2019-02-14T23:56:43.445Z,25.27
2019-02-14T23:59:14.487Z,27.70
